Time;durP1;ratioP1;P1;durP2;ratioP2;P2;SDS_P1;SDS_P2;PMS_P1;PMS_P2;Temp;Humidity;BMP_temperature;BMP_pressure;BME280_temperature;BME280_humidity;BME280_pressure;Samples;Min_cycle;Max_cycle;Signal;HPM_P1;HPM_P2
2021/07/24 00:01:51;;;;;;;6.88;4.13;;;18.10;70.10;;;;;;4993680;28;20500;-78
2021/07/24 00:04:16;;;;;;;6.93;4.70;;;18.10;69.30;;;;;;4993345;28;20018;-77
2021/07/24 00:06:42;;;;;;;7.03;4.80;;;18.10;69.30;;;;;;4993450;28;20022;-77
2021/07/24 00:09:07;;;;;;;4.82;3.72;;;18.10;69.30;;;;;;4994039;28;20023;-77
2021/07/24 00:11:35;;;;;;;5.90;4.13;;;18.10;69.30;;;;;;4993543;28;20037;-77
2021/07/24 00:14:00;;;;;;;4.93;3.97;;;18.00;69.30;;;;;;4993858;28;20036;-78
2021/07/24 00:16:26;;;;;;;5.00;4.07;;;18.00;69.30;;;;;;4991372;28;20121;-78
2021/07/24 00:18:51;;;;;;;5.70;3.75;;;18.00;69.20;;;;;;4992102;28;20056;-78
2021/07/24 00:21:17;;;;;;;7.57;5.53;;;18.00;69.30;;;;;;4993656;28;20085;-77
2021/07/24 00:23:42;;;;;;;7.15;5.00;;;17.90;69.80;;;;;;4993364;28;20076;-77
2021/07/24 00:26:14;;;;;;;6.80;4.88;;;17.90;69.90;;;;;;4992305;28;20022;-77
2021/07/24 00:28:41;;;;;;;5.85;4.50;;;17.90;69.90;;;;;;4989657;28;20031;-77
2021/07/24 00:31:07;;;;;;;5.00;3.88;;;17.80;69.80;;;;;;4992203;28;20018;-77
2021/07/24 00:33:33;;;;;;;6.22;4.25;;;17.80;69.80;;;;;;4993019;28;20493;-76
2021/07/24 00:35:58;;;;;;;6.63;4.40;;;17.80;70.00;;;;;;4993443;28;20493;-77
2021/07/24 00:38:27;;;;;;;6.28;4.70;;;17.80;70.10;;;;;;4992785;28;20026;-77
2021/07/24 00:41:01;;;;;;;6.00;4.20;;;17.70;70.10;;;;;;4993127;28;20030;-77
2021/07/24 00:43:29;;;;;;;6.18;4.43;;;17.70;70.30;;;;;;4991103;28;20433;-77
2021/07/24 00:45:56;;;;;;;8.18;5.75;;;17.70;70.40;;;;;;4993178;28;20030;-77
2021/07/24 00:48:23;;;;;;;7.88;6.35;;;17.70;70.80;;;;;;4991949;28;20379;-77
2021/07/24 00:50:50;;;;;;;7.55;5.13;;;17.60;71.30;;;;;;4991882;28;20029;-77
2021/07/24 00:53:33;;;;;;;7.22;5.32;;;17.60;71.40;;;;;;4992654;28;20026;-77
2021/07/24 00:56:00;;;;;;;8.70;5.85;;;17.50;71.20;;;;;;5007123;28;20046;-77
2021/07/24 00:58:35;;;;;;;9.48;6.55;;;17.50;71.40;;;;;;4992686;28;20030;-77
2021/07/24 01:01:01;;;;;;;7.72;6.00;;;17.50;71.90;;;;;;4978413;28;20114;-77
2021/07/24 01:03:27;;;;;;;8.38;6.38;;;17.50;72.30;;;;;;4992314;28;20080;-77
2021/07/24 01:05:54;;;;;;;9.40;6.25;;;17.40;72.50;;;;;;4992754;28;20520;-77
2021/07/24 01:08:21;;;;;;;5.97;4.75;;;17.40;72.50;;;;;;4992268;28;20468;-77
2021/07/24 01:10:47;;;;;;;7.13;5.00;;;17.40;72.20;;;;;;4991530;28;20034;-77
2021/07/24 01:13:16;;;;;;;10.35;6.80;;;17.40;72.10;;;;;;4992715;28;20030;-77
2021/07/24 01:15:46;;;;;;;7.90;5.97;;;17.40;72.80;;;;;;4990728;28;20062;-77
2021/07/24 01:18:12;;;;;;;6.95;5.18;;;17.30;72.70;;;;;;5006867;28;20041;-77
2021/07/24 01:20:39;;;;;;;9.55;6.88;;;17.30;72.70;;;;;;4992135;28;20032;-77
2021/07/24 01:23:04;;;;;;;8.55;5.60;;;17.30;73.10;;;;;;4992054;28;20381;-77
2021/07/24 01:25:30;;;;;;;7.07;5.30;;;17.30;73.20;;;;;;4992088;28;20034;-77
2021/07/24 01:27:55;;;;;;;9.30;6.00;;;17.30;73.00;;;;;;4987996;28;20086;-78
2021/07/24 01:30:20;;;;;;;8.18;5.72;;;17.20;73.20;;;;;;4988458;28;20038;-78
2021/07/24 01:32:46;;;;;;;7.63;5.60;;;17.20;73.10;;;;;;4991774;28;20050;-77
2021/07/24 01:35:12;;;;;;;6.72;4.80;;;17.20;73.30;;;;;;4992018;28;20031;-77
2021/07/24 01:37:38;;;;;;;9.40;6.72;;;17.20;73.10;;;;;;4991165;28;20030;-77
2021/07/24 01:40:04;;;;;;;7.95;6.05;;;17.20;73.40;;;;;;4987281;28;20038;-77
2021/07/24 01:42:30;;;;;;;7.82;5.68;;;17.10;73.50;;;;;;4990894;28;20015;-77
2021/07/24 01:44:57;;;;;;;7.75;5.60;;;17.10;73.40;;;;;;4991470;28;20046;-77
2021/07/24 01:47:22;;;;;;;7.47;5.30;;;17.10;73.40;;;;;;4992392;28;20026;-77
2021/07/24 01:52:48;;;;;;;9.95;6.63;;;17.10;73.50;;;;;;4990651;28;20121;-77
2021/07/24 01:55:21;;;;;;;7.88;5.25;;;17.00;74.40;;;;;;4990978;28;20033;-77
2021/07/24 01:57:49;;;;;;;8.98;6.38;;;16.90;74.20;;;;;;5001798;28;20084;-77
2021/07/24 02:00:17;;;;;;;8.55;6.65;;;16.90;74.80;;;;;;4990744;28;20030;-77
2021/07/24 02:02:44;;;;;;;11.10;7.93;;;16.80;75.00;;;;;;4991997;28;20057;-77
2021/07/24 02:05:18;;;;;;;9.10;6.88;;;16.70;76.10;;;;;;4991073;28;20034;-77
2021/07/24 02:07:47;;;;;;;9.77;6.93;;;16.70;76.10;;;;;;4991460;28;20482;-77
2021/07/24 02:10:13;;;;;;;8.38;5.88;;;16.60;76.20;;;;;;4991621;28;20026;-77
2021/07/24 02:12:39;;;;;;;8.80;6.57;;;16.60;76.60;;;;;;4991270;28;20033;-77
2021/07/24 02:15:05;;;;;;;12.13;8.82;;;16.60;76.60;;;;;;4990254;28;20069;-77
2021/07/24 02:17:31;;;;;;;10.85;7.00;;;16.60;77.00;;;;;;4991336;28;20030;-77
2021/07/24 02:20:03;;;;;;;8.10;5.82;;;16.50;76.90;;;;;;4991601;28;20485;-76
2021/07/24 02:22:28;;;;;;;8.93;6.13;;;16.50;76.70;;;;;;4990553;28;20469;-76
2021/07/24 02:24:54;;;;;;;10.07;6.93;;;16.50;76.70;;;;;;4991316;28;20033;-76
2021/07/24 02:27:19;;;;;;;10.57;7.18;;;16.50;77.30;;;;;;4989011;28;20030;-77
2021/07/24 02:29:45;;;;;;;9.07;6.50;;;16.40;77.30;;;;;;4991583;28;20076;-77
2021/07/24 02:32:10;;;;;;;11.80;7.57;;;16.50;77.40;;;;;;4990733;28;20023;-76
2021/07/24 02:34:36;;;;;;;9.05;6.20;;;16.50;77.60;;;;;;4990668;28;20038;-77
2021/07/24 02:37:01;;;;;;;9.73;7.05;;;16.40;77.40;;;;;;4990537;28;20038;-76
2021/07/24 02:39:27;;;;;;;9.82;6.57;;;16.50;77.80;;;;;;4990492;28;20588;-76
2021/07/24 02:41:52;;;;;;;7.22;5.32;;;16.50;77.70;;;;;;4990744;28;20105;-77
2021/07/24 02:44:18;;;;;;;15.68;9.00;;;16.50;77.30;;;;;;4989531;28;20030;-77
2021/07/24 02:46:43;;;;;;;9.30;6.35;;;16.50;77.90;;;;;;4991072;28;20030;-77
2021/07/24 02:49:09;;;;;;;8.27;5.50;;;16.40;77.70;;;;;;4990723;28;20460;-76
2021/07/24 02:51:35;;;;;;;9.07;6.22;;;16.50;77.50;;;;;;4995363;28;20033;-76
2021/07/24 02:54:00;;;;;;;10.48;7.03;;;16.50;77.60;;;;;;4993917;28;20045;-76
2021/07/24 02:56:26;;;;;;;9.57;6.85;;;16.50;77.40;;;;;;4993754;28;20113;-76
2021/07/24 02:58:51;;;;;;;9.88;6.90;;;16.40;77.70;;;;;;4994449;28;20109;-77
2021/07/24 03:01:17;;;;;;;10.18;7.13;;;16.40;77.70;;;;;;4994044;28;20023;-76
2021/07/24 03:03:42;;;;;;;9.18;6.32;;;16.50;78.10;;;;;;4994753;28;20449;-76
2021/07/24 03:06:08;;;;;;;9.45;6.65;;;16.40;78.00;;;;;;4994046;28;20014;-76
2021/07/24 03:08:33;;;;;;;9.18;5.80;;;16.40;77.80;;;;;;4995579;28;20073;-77
2021/07/24 03:10:59;;;;;;;6.45;4.78;;;16.50;77.80;;;;;;4994050;28;20026;-77
2021/07/24 03:13:24;;;;;;;6.95;5.07;;;16.50;77.50;;;;;;4995232;28;20030;-76
2021/07/24 03:15:50;;;;;;;8.88;6.35;;;16.40;77.40;;;;;;4994301;28;20038;-77
2021/07/24 03:18:15;;;;;;;7.93;6.15;;;16.40;78.10;;;;;;4994586;28;20018;-77
2021/07/24 03:20:41;;;;;;;9.40;6.88;;;16.40;78.20;;;;;;4994035;28;20558;-78
2021/07/24 03:23:06;;;;;;;10.10;6.90;;;16.30;78.60;;;;;;4994566;28;20106;-77
2021/07/24 03:25:32;;;;;;;8.32;5.90;;;16.30;78.70;;;;;;5009031;28;20026;-76
2021/07/24 03:27:57;;;;;;;11.25;7.45;;;16.20;78.50;;;;;;4987675;28;20038;-77
2021/07/24 03:30:23;;;;;;;10.63;6.88;;;16.20;78.80;;;;;;4990803;28;20042;-77
2021/07/24 03:32:48;;;;;;;8.50;6.20;;;16.20;79.10;;;;;;4994505;28;20433;-77
2021/07/24 03:35:14;;;;;;;9.60;6.50;;;16.20;78.90;;;;;;4993959;28;20018;-77
2021/07/24 03:37:39;;;;;;;7.25;5.63;;;16.20;78.80;;;;;;4994516;28;20030;-76
2021/07/24 03:40:05;;;;;;;10.93;7.78;;;16.20;78.60;;;;;;4983662;28;20026;-77
2021/07/24 03:42:31;;;;;;;8.68;6.05;;;16.20;78.60;;;;;;4994036;28;20026;-78
2021/07/24 03:44:57;;;;;;;8.73;6.45;;;16.20;78.50;;;;;;4994214;28;20563;-78
2021/07/24 03:47:22;;;;;;;8.02;5.65;;;16.20;78.70;;;;;;4989143;28;20632;-77
2021/07/24 03:49:48;;;;;;;9.30;6.50;;;16.20;78.70;;;;;;4994072;28;20038;-77
2021/07/24 03:52:13;;;;;;;9.10;5.97;;;16.20;78.90;;;;;;4994054;28;20117;-77
2021/07/24 03:54:39;;;;;;;9.15;6.43;;;16.20;78.90;;;;;;4993328;28;20153;-76
2021/07/24 03:57:05;;;;;;;9.25;6.50;;;16.10;78.90;;;;;;4992599;28;20027;-76
2021/07/24 03:59:30;;;;;;;13.80;8.38;;;16.20;78.90;;;;;;4994406;28;20026;-76
2021/07/24 04:01:58;;;;;;;11.30;8.18;;;16.20;79.30;;;;;;4991069;28;20022;-78
2021/07/24 04:04:23;;;;;;;10.18;7.32;;;16.20;79.40;;;;;;4992798;28;20049;-78
2021/07/24 04:06:51;;;;;;;10.70;7.00;;;16.20;79.40;;;;;;4994094;28;20656;-78
2021/07/24 04:09:16;;;;;;;10.57;7.20;;;16.20;79.40;;;;;;4994382;28;20114;-78
2021/07/24 04:11:42;;;;;;;9.30;6.70;;;16.20;80.20;;;;;;4993010;28;20112;-77
2021/07/24 04:14:08;;;;;;;11.55;7.85;;;16.20;79.60;;;;;;4993480;28;20034;-78
2021/07/24 04:16:34;;;;;;;11.70;7.78;;;16.20;79.80;;;;;;4994049;28;20038;-77
2021/07/24 04:19:00;;;;;;;8.43;6.20;;;16.20;80.10;;;;;;4992289;28;20029;-78
2021/07/24 04:21:26;;;;;;;9.13;6.60;;;16.20;79.80;;;;;;4993596;28;20034;-77
2021/07/24 04:23:51;;;;;;;11.02;7.40;;;16.20;79.60;;;;;;4993680;28;20023;-77
2021/07/24 04:26:17;;;;;;;9.70;6.50;;;16.20;79.50;;;;;;4992013;28;20077;-77
2021/07/24 04:28:43;;;;;;;12.88;8.95;;;16.20;79.40;;;;;;4986918;28;20105;-77
2021/07/24 04:31:12;;;;;;;9.98;7.82;;;16.20;80.10;;;;;;4991928;28;20038;-77
2021/07/24 04:33:38;;;;;;;8.93;6.30;;;16.20;80.10;;;;;;4992815;28;20033;-76
2021/07/24 04:36:03;;;;;;;9.50;6.55;;;16.30;80.00;;;;;;4993317;28;20564;-77
2021/07/24 04:38:29;;;;;;;10.40;7.72;;;16.30;80.10;;;;;;4992962;28;20026;-77
2021/07/24 04:40:54;;;;;;;9.15;7.13;;;16.30;80.00;;;;;;4993110;28;20053;-77
2021/07/24 04:43:20;;;;;;;10.68;6.82;;;16.30;80.00;;;;;;4993394;28;20112;-77
2021/07/24 04:45:45;;;;;;;9.57;6.55;;;16.40;79.90;;;;;;4993153;28;20027;-77
2021/07/24 04:48:11;;;;;;;9.48;7.13;;;16.50;79.70;;;;;;4993158;28;20658;-77
2021/07/24 04:50:47;;;;;;;8.73;5.68;;;16.50;79.60;;;;;;4992874;28;20547;-76
2021/07/24 04:53:16;;;;;;;10.10;6.47;;;16.60;79.30;;;;;;4992916;28;20109;-76
2021/07/24 04:55:41;;;;;;;10.18;7.32;;;16.60;79.30;;;;;;4993330;28;20061;-76
2021/07/24 04:58:08;;;;;;;8.50;5.85;;;16.70;79.00;;;;;;4993107;28;20477;-76
2021/07/24 05:00:52;;;;;;;8.98;6.03;;;16.70;78.90;;;;;;4992162;28;20026;-76
2021/07/24 05:03:19;;;;;;;12.00;9.07;;;16.80;78.90;;;;;;4992070;28;20022;-76
2021/07/24 05:05:45;;;;;;;8.90;6.60;;;16.70;79.00;;;;;;4992617;28;20023;-75
2021/07/24 05:08:11;;;;;;;9.55;6.50;;;16.80;78.90;;;;;;4991572;28;20026;-75
2021/07/24 05:10:38;;;;;;;10.02;7.32;;;16.80;78.70;;;;;;4992065;28;20089;-77
2021/07/24 05:13:04;;;;;;;8.88;6.60;;;16.90;78.70;;;;;;4992108;28;20425;-77
2021/07/24 05:15:30;;;;;;;12.38;7.97;;;16.90;78.80;;;;;;4992391;28;20035;-77
2021/07/24 05:17:55;;;;;;;8.50;6.38;;;16.80;78.80;;;;;;4991998;28;20019;-77
2021/07/24 05:20:21;;;;;;;10.05;6.88;;;16.80;78.80;;;;;;4983837;28;20027;-77
2021/07/24 05:22:46;;;;;;;8.90;6.15;;;16.90;78.70;;;;;;4992542;28;20046;-77
2021/07/24 05:25:12;;;;;;;8.00;5.70;;;16.90;78.70;;;;;;4992572;28;20027;-77
2021/07/24 05:27:38;;;;;;;8.85;6.47;;;17.00;78.50;;;;;;4982338;28;20035;-77
2021/07/24 05:30:04;;;;;;;10.05;7.28;;;17.00;78.30;;;;;;4992590;28;20601;-75
2021/07/24 05:32:30;;;;;;;9.23;7.05;;;17.10;78.10;;;;;;4982157;28;20027;-76
2021/07/24 05:34:56;;;;;;;9.18;6.57;;;17.20;78.00;;;;;;4990279;28;20038;-76
2021/07/24 05:37:21;;;;;;;9.23;6.18;;;17.20;77.90;;;;;;4991823;28;20042;-76
2021/07/24 05:39:47;;;;;;;9.55;6.28;;;17.30;77.70;;;;;;4989976;28;20072;-76
2021/07/24 05:42:12;;;;;;;8.30;5.97;;;17.50;77.20;;;;;;4992205;28;20031;-77
2021/07/24 05:44:38;;;;;;;8.43;6.07;;;17.90;76.60;;;;;;4992708;28;20053;-77
2021/07/24 05:47:04;;;;;;;6.80;5.15;;;18.30;75.30;;;;;;4992511;28;20398;-76
2021/07/24 05:49:30;;;;;;;6.18;4.97;;;18.90;73.80;;;;;;4992686;28;20026;-76
2021/07/24 05:51:55;;;;;;;8.48;5.85;;;19.40;72.20;;;;;;4986206;28;20490;-76
2021/07/24 05:54:22;;;;;;;8.55;6.15;;;19.70;70.50;;;;;;4991073;28;20022;-76
2021/07/24 05:56:49;;;;;;;6.47;4.97;;;20.20;69.30;;;;;;4990692;28;20031;-77
2021/07/24 05:59:15;;;;;;;7.68;5.88;;;20.50;68.10;;;;;;4992137;28;20018;-76
2021/07/24 06:01:40;;;;;;;8.98;6.43;;;20.80;66.80;;;;;;4989352;28;20604;-77
2021/07/24 06:04:08;;;;;;;8.18;6.35;;;20.60;65.80;;;;;;4991615;28;20500;-78
2021/07/24 06:06:33;;;;;;;7.47;5.75;;;20.40;66.50;;;;;;4990478;28;20019;-77
2021/07/24 06:08:59;;;;;;;7.43;5.68;;;20.60;66.40;;;;;;4991559;28;20041;-78
2021/07/24 06:11:24;;;;;;;8.68;6.65;;;20.80;66.20;;;;;;4991296;28;20026;-77
2021/07/24 06:13:50;;;;;;;9.77;7.15;;;20.70;65.50;;;;;;4991308;28;20034;-77
2021/07/24 06:16:15;;;;;;;9.60;5.80;;;20.60;65.70;;;;;;5009894;28;20543;-77
2021/07/24 06:18:41;;;;;;;7.20;5.72;;;20.50;66.30;;;;;;4991163;28;20026;-77
2021/07/24 06:21:12;;;;;;;6.65;4.47;;;20.70;65.80;;;;;;4991383;28;20030;-78
2021/07/24 06:23:37;;;;;;;7.07;5.10;;;20.90;65.70;;;;;;4988276;28;20030;-77
2021/07/24 06:26:03;;;;;;;6.82;5.32;;;21.00;65.50;;;;;;4989405;28;20345;-77
2021/07/24 06:28:29;;;;;;;8.30;5.72;;;21.40;64.80;;;;;;4986029;28;20038;-76
2021/07/24 06:30:55;;;;;;;7.30;5.78;;;21.60;63.90;;;;;;4986840;28;20385;-77
2021/07/24 06:33:20;;;;;;;8.85;6.68;;;21.50;63.90;;;;;;4980954;28;20029;-77
2021/07/24 06:35:46;;;;;;;6.72;5.55;;;21.50;63.50;;;;;;4978542;28;20038;-77
2021/07/24 06:38:12;;;;;;;6.05;4.10;;;21.50;64.20;;;;;;4981691;28;20033;-77
2021/07/24 06:40:37;;;;;;;6.22;4.13;;;21.70;64.20;;;;;;4984100;28;20041;-77
2021/07/24 06:43:03;;;;;;;7.03;5.20;;;21.90;64.10;;;;;;4982212;28;20035;-78
2021/07/24 06:45:30;;;;;;;6.90;4.75;;;21.60;64.00;;;;;;4986243;28;20026;-78
2021/07/24 06:47:55;;;;;;;7.40;5.90;;;21.40;64.50;;;;;;5003160;28;20065;-78
2021/07/24 06:50:23;;;;;;;7.35;5.38;;;21.10;64.70;;;;;;4987856;28;20462;-78
2021/07/24 06:52:50;;;;;;;8.52;5.60;;;20.80;65.70;;;;;;4983142;28;20496;-77
2021/07/24 06:55:15;;;;;;;7.80;6.18;;;20.60;66.10;;;;;;4986558;28;20034;-79
2021/07/24 06:57:41;;;;;;;8.50;6.53;;;20.40;66.70;;;;;;4982533;28;20027;-78
2021/07/24 07:00:07;;;;;;;8.68;6.15;;;20.10;67.30;;;;;;4984266;28;20097;-76
2021/07/24 07:02:32;;;;;;;8.00;5.80;;;20.00;68.00;;;;;;4984480;28;20490;-77
2021/07/24 07:04:58;;;;;;;8.35;6.80;;;20.00;68.40;;;;;;4985036;28;20034;-77
2021/07/24 07:07:23;;;;;;;8.48;6.38;;;19.90;68.80;;;;;;4978769;28;20037;-78
2021/07/24 07:09:50;;;;;;;6.70;4.93;;;19.80;69.30;;;;;;4989366;28;20022;-76
2021/07/24 07:12:15;;;;;;;7.60;5.85;;;19.80;69.50;;;;;;4981510;28;20073;-77
2021/07/24 07:14:41;;;;;;;8.77;5.30;;;19.80;69.80;;;;;;4985508;28;20112;-77
2021/07/24 07:17:06;;;;;;;7.53;5.68;;;19.90;70.00;;;;;;4976344;28;20111;-77
2021/07/24 07:19:32;;;;;;;7.15;4.30;;;19.90;70.00;;;;;;4981225;28;20170;-77
2021/07/24 07:21:57;;;;;;;5.47;4.45;;;20.00;69.90;;;;;;4977444;28;20049;-76
2021/07/24 07:24:23;;;;;;;5.95;3.95;;;20.10;69.80;;;;;;4985930;28;20026;-76
2021/07/24 07:26:49;;;;;;;5.85;4.30;;;20.20;69.50;;;;;;4982964;28;20417;-76
2021/07/24 07:29:14;;;;;;;7.47;4.95;;;20.30;69.20;;;;;;4986509;28;20026;-76
2021/07/24 07:31:40;;;;;;;6.57;5.40;;;20.30;69.20;;;;;;4982652;28;20052;-75
2021/07/24 07:34:06;;;;;;;6.53;5.20;;;20.20;69.30;;;;;;4986137;28;20027;-76
2021/07/24 07:36:32;;;;;;;8.77;6.00;;;20.10;69.60;;;;;;4990292;28;20034;-75
2021/07/24 07:38:58;;;;;;;7.40;5.50;;;20.10;69.60;;;;;;4992462;28;20038;-75
2021/07/24 07:41:23;;;;;;;4.85;4.18;;;20.10;69.70;;;;;;4997159;28;20485;-74
2021/07/24 07:43:49;;;;;;;7.90;5.80;;;20.30;69.60;;;;;;4995878;28;20073;-75
2021/07/24 07:46:16;;;;;;;7.20;5.35;;;20.30;69.50;;;;;;4994299;28;20049;-76
2021/07/24 07:48:42;;;;;;;7.85;6.20;;;20.40;69.40;;;;;;5010940;28;20022;-75
2021/07/24 07:51:08;;;;;;;7.93;4.50;;;20.30;69.30;;;;;;4999693;28;20031;-75
2021/07/24 07:53:35;;;;;;;7.30;5.47;;;20.40;69.10;;;;;;5004506;28;20076;-75
2021/07/24 07:56:01;;;;;;;5.57;4.90;;;20.40;69.00;;;;;;4991189;28;20048;-75
2021/07/24 07:58:27;;;;;;;5.68;4.70;;;20.40;69.00;;;;;;4992995;28;20462;-75
2021/07/24 08:00:54;;;;;;;6.13;4.78;;;20.50;69.20;;;;;;4993296;28;20032;-75
2021/07/24 08:03:24;;;;;;;5.82;3.92;;;20.70;69.20;;;;;;4991270;28;20030;-75
2021/07/24 08:05:53;;;;;;;4.45;3.42;;;20.90;68.80;;;;;;4990005;28;20125;-75
2021/07/24 08:08:19;;;;;;;7.22;5.10;;;21.30;68.10;;;;;;4993164;28;20056;-75
2021/07/24 08:10:44;;;;;;;4.82;3.60;;;21.40;67.40;;;;;;4998948;28;20042;-75
2021/07/24 08:13:15;;;;;;;4.13;3.58;;;21.70;67.00;;;;;;5008453;28;20432;-75
2021/07/24 08:15:41;;;;;;;6.60;4.00;;;22.00;66.40;;;;;;5002860;28;20041;-77
2021/07/24 08:18:07;;;;;;;5.28;4.40;;;22.30;65.80;;;;;;5013498;28;20472;-77
2021/07/24 08:20:33;;;;;;;8.93;6.20;;;22.40;65.20;;;;;;4989677;28;20142;-76
2021/07/24 08:22:59;;;;;;;5.82;4.25;;;22.50;64.50;;;;;;4992604;28;20026;-76
2021/07/24 08:25:24;;;;;;;6.07;4.28;;;22.60;64.40;;;;;;4990109;28;20469;-77
2021/07/24 08:27:50;;;;;;;8.32;6.10;;;22.80;64.20;;;;;;4983340;28;20493;-76
2021/07/24 08:30:16;;;;;;;4.80;4.07;;;22.90;63.20;;;;;;4981695;28;20018;-76
2021/07/24 08:32:41;;;;;;;6.20;4.80;;;23.00;63.30;;;;;;4990105;28;20022;-77
2021/07/24 08:35:07;;;;;;;5.32;3.80;;;23.20;63.10;;;;;;4985914;28;20164;-78
2021/07/24 08:37:33;;;;;;;4.75;3.72;;;23.40;62.90;;;;;;4993251;28;20038;-78
2021/07/24 08:39:58;;;;;;;4.75;3.60;;;23.60;62.60;;;;;;4990541;28;20506;-77
2021/07/24 08:42:28;;;;;;;4.95;3.90;;;23.70;62.30;;;;;;4985110;28;20026;-77
2021/07/24 08:44:54;;;;;;;6.25;4.15;;;23.80;62.00;;;;;;4989107;28;20137;-77
2021/07/24 08:47:19;;;;;;;4.20;3.33;;;23.90;61.80;;;;;;4987313;28;20113;-77
2021/07/24 08:49:45;;;;;;;5.20;3.72;;;23.90;61.50;;;;;;4989554;28;20033;-78
2021/07/24 08:52:17;;;;;;;5.53;4.35;;;24.00;61.30;;;;;;5011399;28;20400;-76
2021/07/24 08:54:43;;;;;;;6.40;4.85;;;24.00;60.80;;;;;;5011144;28;20543;-78
2021/07/24 08:57:10;;;;;;;5.85;4.15;;;23.90;60.30;;;;;;5003973;28;20033;-78
2021/07/24 08:59:37;;;;;;;5.40;4.00;;;23.90;60.80;;;;;;5005077;28;20388;-78
2021/07/24 09:02:04;;;;;;;4.63;3.70;;;24.00;60.80;;;;;;4993334;28;20093;-79
2021/07/24 09:04:30;;;;;;;5.60;3.60;;;24.10;60.80;;;;;;4992652;28;20122;-78
2021/07/24 09:07:02;;;;;;;5.60;3.65;;;24.20;60.80;;;;;;5009959;28;20108;-78
2021/07/24 09:09:27;;;;;;;6.57;3.67;;;24.20;60.80;;;;;;4990892;28;20027;-79
2021/07/24 09:11:53;;;;;;;4.85;3.58;;;24.20;60.70;;;;;;4987752;28;20028;-78
2021/07/24 09:14:19;;;;;;;6.18;4.40;;;24.30;60.60;;;;;;4989780;28;20033;-78
2021/07/24 09:16:45;;;;;;;4.25;3.28;;;24.30;60.50;;;;;;4991924;28;20057;-78
2021/07/24 09:19:12;;;;;;;8.30;4.95;;;24.40;60.50;;;;;;4992558;28;20537;-78
2021/07/24 09:21:40;;;;;;;4.72;3.72;;;24.30;60.40;;;;;;4987705;28;20057;-78
2021/07/24 09:24:23;;;;;;;4.72;3.70;;;24.50;60.60;;;;;;4994067;28;20084;-78
2021/07/24 09:26:49;;;;;;;4.43;3.67;;;24.60;60.30;;;;;;4987047;28;20031;-77
2021/07/24 09:29:20;;;;;;;5.50;4.30;;;24.70;60.10;;;;;;4981833;28;20058;-77
2021/07/24 09:31:47;;;;;;;5.65;3.95;;;24.80;59.90;;;;;;4994057;28;20456;-77
2021/07/24 09:34:15;;;;;;;6.85;4.10;;;24.80;59.80;;;;;;4988553;28;20054;-76
2021/07/24 09:36:42;;;;;;;4.57;3.80;;;25.00;59.80;;;;;;4996515;28;20026;-78
2021/07/24 09:39:13;;;;;;;6.20;4.05;;;25.00;59.60;;;;;;4983060;28;20026;-76
2021/07/24 09:41:43;;;;;;;3.95;3.47;;;25.00;59.50;;;;;;4990346;28;20036;-77
2021/07/24 09:44:10;;;;;;;4.40;3.47;;;25.00;59.60;;;;;;4990880;28;20044;-76
2021/07/24 09:46:36;;;;;;;7.85;5.40;;;25.00;59.50;;;;;;4992887;28;20030;-78
2021/07/24 09:49:15;;;;;;;5.40;4.10;;;24.90;59.30;;;;;;4997834;28;20121;-79
2021/07/24 09:51:43;;;;;;;5.28;4.10;;;24.90;59.80;;;;;;4984720;28;20057;-78
2021/07/24 09:54:26;;;;;;;7.53;5.15;;;25.00;59.80;;;;;;4987876;28;20041;-79
2021/07/24 09:56:51;;;;;;;5.55;4.00;;;25.00;59.70;;;;;;4987546;28;20030;-78
2021/07/24 09:59:19;;;;;;;6.40;4.90;;;25.00;59.80;;;;;;4992119;28;20564;-79
2021/07/24 10:01:53;;;;;;;5.80;4.68;;;25.00;59.50;;;;;;4988894;28;20068;-78
2021/07/24 10:04:26;;;;;;;6.35;4.13;;;24.90;59.70;;;;;;4986314;28;20443;-79
2021/07/24 10:06:54;;;;;;;7.55;6.03;;;24.90;59.90;;;;;;4984280;28;20033;-78
2021/07/24 10:09:25;;;;;;;5.40;4.50;;;24.70;59.90;;;;;;4977562;28;20042;-78
2021/07/24 10:11:53;;;;;;;5.75;4.22;;;24.80;60.20;;;;;;4988127;28;20069;-79
2021/07/24 10:14:18;;;;;;;6.80;5.35;;;24.70;60.00;;;;;;4986424;28;20030;-76
2021/07/24 10:16:44;;;;;;;5.75;4.18;;;24.70;60.20;;;;;;4989250;28;20034;-77
2021/07/24 10:19:11;;;;;;;6.22;5.18;;;24.70;60.30;;;;;;4993330;28;20030;-76
2021/07/24 10:21:36;;;;;;;6.47;4.95;;;24.60;60.50;;;;;;4985344;28;20551;-76
2021/07/24 10:24:02;;;;;;;4.22;3.63;;;24.60;60.80;;;;;;5003137;28;20022;-77
2021/07/24 10:26:32;;;;;;;4.82;4.10;;;24.70;60.80;;;;;;4984817;28;20022;-79
2021/07/24 10:29:09;;;;;;;4.70;4.05;;;24.70;60.70;;;;;;4984348;28;20088;-79
2021/07/24 10:31:43;;;;;;;6.55;4.88;;;24.80;60.60;;;;;;4977434;28;20022;-76
2021/07/24 10:34:12;;;;;;;4.65;3.40;;;24.80;60.20;;;;;;4990537;28;20042;-77
2021/07/24 10:36:40;;;;;;;4.80;3.78;;;25.00;60.30;;;;;;4987302;28;20499;-77
2021/07/24 10:39:19;;;;;;;6.43;5.25;;;25.10;60.20;;;;;;4991373;28;20057;-77
2021/07/24 10:42:10;;;;;;;7.85;5.68;;;25.10;59.80;;;;;;4981625;28;20044;-78
2021/07/24 10:44:40;;;;;;;6.00;4.78;;;24.90;59.80;;;;;;4982294;28;20062;-77
2021/07/24 10:47:11;;;;;;;10.02;6.32;;;24.80;60.10;;;;;;4991368;28;20018;-79
2021/07/24 10:49:36;;;;;;;7.55;6.25;;;24.80;60.10;;;;;;4995703;28;20469;-78
2021/07/24 10:52:03;;;;;;;8.85;6.68;;;24.60;60.40;;;;;;4987970;28;20088;-78
2021/07/24 10:54:30;;;;;;;7.97;5.88;;;24.40;60.50;;;;;;5003645;28;20144;-77
2021/07/24 10:56:55;;;;;;;10.57;6.90;;;24.30;61.10;;;;;;4984520;28;20494;-78
2021/07/24 10:59:26;;;;;;;6.85;5.30;;;24.30;61.20;;;;;;4994306;28;20080;-78
2021/07/24 11:01:56;;;;;;;6.32;4.82;;;24.40;61.30;;;;;;4988981;28;20031;-79
2021/07/24 11:04:37;;;;;;;5.82;4.88;;;24.40;61.40;;;;;;4989607;28;20080;-79
2021/07/24 11:07:21;;;;;;;4.35;3.33;;;24.50;61.40;;;;;;4991899;28;20049;-78
2021/07/24 11:10:06;;;;;;;7.18;6.07;;;24.60;61.30;;;;;;4993467;28;20023;-77
2021/07/24 11:12:37;;;;;;;8.25;6.53;;;24.60;61.10;;;;;;4999343;28;20443;-77
2021/07/24 11:15:04;;;;;;;5.75;4.85;;;24.50;61.00;;;;;;5001715;28;20034;-77
2021/07/24 11:17:30;;;;;;;8.40;6.07;;;24.50;61.10;;;;;;4991243;28;20032;-77
2021/07/24 11:20:03;;;;;;;6.88;4.80;;;24.50;61.20;;;;;;4989072;28;20501;-77
2021/07/24 11:22:29;;;;;;;5.78;4.38;;;24.50;61.20;;;;;;4991103;28;20030;-78
2021/07/24 11:24:58;;;;;;;6.55;5.03;;;24.50;61.10;;;;;;4986028;28;20023;-78
2021/07/24 11:27:29;;;;;;;7.43;6.18;;;24.50;61.10;;;;;;4988247;28;20027;-77
2021/07/24 11:30:09;;;;;;;7.47;5.65;;;24.30;61.20;;;;;;4991425;28;20018;-77
2021/07/24 11:32:40;;;;;;;8.82;6.50;;;24.30;61.50;;;;;;4992878;28;20022;-78
2021/07/24 11:35:08;;;;;;;6.00;4.97;;;24.30;61.70;;;;;;4984334;28;20434;-78
2021/07/24 11:37:35;;;;;;;4.78;3.50;;;24.30;62.50;;;;;;4990282;28;20033;-76
2021/07/24 11:40:02;;;;;;;6.43;4.88;;;24.50;61.90;;;;;;4992604;28;20030;-77
2021/07/24 11:42:27;;;;;;;6.57;5.20;;;24.50;61.90;;;;;;4989198;28;20117;-76
2021/07/24 11:44:53;;;;;;;7.32;6.20;;;24.50;62.00;;;;;;4992482;28;20102;-77
2021/07/24 11:47:19;;;;;;;5.68;4.53;;;24.50;61.90;;;;;;4981055;28;20035;-77
2021/07/24 11:49:44;;;;;;;6.43;5.25;;;24.60;61.90;;;;;;4989187;28;20065;-78
2021/07/24 11:52:10;;;;;;;8.43;4.70;;;24.60;61.80;;;;;;5009695;28;20385;-76
2021/07/24 11:54:36;;;;;;;5.97;4.82;;;24.60;61.70;;;;;;4992439;28;20484;-76
2021/07/24 11:57:04;;;;;;;5.32;4.15;;;24.70;61.70;;;;;;4984711;28;20138;-77
2021/07/24 11:59:31;;;;;;;8.55;6.88;;;24.70;61.70;;;;;;5010423;28;20073;-77
2021/07/24 12:01:58;;;;;;;7.80;5.85;;;24.60;61.70;;;;;;4992427;28;20427;-77
2021/07/24 12:04:24;;;;;;;7.43;5.40;;;24.60;61.90;;;;;;4990643;28;20093;-78
2021/07/24 12:06:59;;;;;;;8.60;6.80;;;24.60;62.00;;;;;;4991717;28;20030;-78
2021/07/24 12:09:25;;;;;;;7.63;6.20;;;24.50;62.10;;;;;;4991958;28;20038;-78
2021/07/24 12:12:00;;;;;;;10.02;7.05;;;24.40;62.30;;;;;;5001228;28;20027;-78
2021/07/24 12:14:27;;;;;;;9.48;7.38;;;24.30;62.60;;;;;;4994004;28;20030;-78
2021/07/24 12:17:04;;;;;;;7.35;6.00;;;24.20;62.90;;;;;;4999570;28;20037;-82
2021/07/24 12:19:40;;;;;;;7.10;5.95;;;24.20;63.10;;;;;;4997203;28;20023;-82
2021/07/24 12:22:21;;;;;;;6.70;5.35;;;24.10;63.20;;;;;;4989700;28;20026;-81
2021/07/24 12:24:48;;;;;;;5.93;4.55;;;24.20;63.30;;;;;;5001351;28;20019;-80
2021/07/24 12:27:19;;;;;;;6.45;5.57;;;24.20;63.30;;;;;;4989460;28;20037;-79
2021/07/24 12:30:00;;;;;;;9.13;7.00;;;24.30;63.20;;;;;;4984895;28;20049;-79
2021/07/24 12:32:40;;;;;;;5.82;4.40;;;24.30;63.40;;;;;;4988427;28;20023;-80
2021/07/24 12:35:20;;;;;;;4.70;3.72;;;24.30;63.40;;;;;;4991860;28;20088;-80
2021/07/24 12:37:46;;;;;;;9.15;6.65;;;24.40;63.20;;;;;;4986774;28;20366;-80
2021/07/24 12:40:22;;;;;;;5.88;4.80;;;24.30;63.30;;;;;;4985605;28;20039;-80
2021/07/24 12:42:47;;;;;;;9.07;6.40;;;24.40;63.40;;;;;;5001687;28;20034;-80
2021/07/24 12:45:25;;;;;;;9.18;6.90;;;24.30;63.30;;;;;;4985302;28;20033;-79
2021/07/24 12:47:52;;;;;;;10.20;7.55;;;24.40;63.40;;;;;;4985478;28;20030;-80
2021/07/24 12:50:18;;;;;;;8.80;6.93;;;24.30;63.60;;;;;;4985824;28;20033;-80